createdAt,value
2018-11-20T00:07:22.026Z,16.23
2018-11-20T00:11:01.008Z,15.80
2018-11-20T00:14:02.425Z,16.93
2018-11-20T00:16:14.354Z,16.17
2018-11-20T00:19:44.223Z,16.27
2018-11-20T00:23:50.969Z,16.47
2018-11-20T00:30:54.925Z,16.83
2018-11-20T00:39:52.797Z,17.17
2018-11-20T00:40:46.784Z,18.33
2018-11-20T00:43:36.862Z,18.07
2018-11-20T00:48:26.629Z,18.33
2018-11-20T00:51:25.244Z,18.37
2018-11-20T00:52:19.805Z,17.20
2018-11-20T00:55:26.690Z,18.60
2018-11-20T01:02:00.000Z,18.03
2018-11-20T01:09:17.626Z,17.80
2018-11-20T01:37:19.075Z,17.77
2018-11-20T01:47:22.976Z,19.17
2018-11-20T01:56:47.359Z,20.07
2018-11-20T01:57:32.945Z,19.53
2018-11-20T02:07:46.880Z,19.87
2018-11-20T02:10:13.946Z,18.77
2018-11-20T02:13:22.741Z,18.73
2018-11-20T02:17:59.236Z,18.30
2018-11-20T02:18:51.667Z,19.83
2018-11-20T02:19:44.440Z,18.00
2018-11-20T02:20:31.121Z,20.00
2018-11-20T02:21:26.420Z,18.93
2018-11-20T02:22:26.864Z,18.37
2018-11-20T02:23:19.922Z,18.43
2018-11-20T02:24:12.658Z,18.47
2018-11-20T02:25:06.887Z,19.93
2018-11-20T02:26:10.113Z,19.53
2018-11-20T02:27:21.933Z,18.07
2018-11-20T02:28:19.252Z,19.53
2018-11-20T02:29:15.609Z,18.17
2018-11-20T02:30:12.595Z,17.90
2018-11-20T02:31:12.590Z,18.63
2018-11-20T02:32:15.614Z,19.57
2018-11-20T02:33:10.103Z,19.07
2018-11-20T02:34:03.455Z,18.83
2018-11-20T02:35:09.361Z,21.50
2018-11-20T02:36:21.723Z,20.10
2018-11-20T02:37:18.877Z,19.10
2018-11-20T02:38:12.843Z,18.23
2018-11-20T02:39:05.233Z,17.90
2018-11-20T02:39:59.006Z,19.00
2018-11-20T02:40:55.865Z,19.37
2018-11-20T02:41:59.113Z,19.70
2018-11-20T02:42:52.141Z,19.20
2018-11-20T02:43:49.289Z,17.93
2018-11-20T02:44:38.211Z,18.27
2018-11-20T02:45:35.457Z,20.23
2018-11-20T02:46:35.253Z,18.00
2018-11-20T02:47:35.248Z,18.50
2018-11-20T02:48:42.041Z,19.23
2018-11-20T02:49:32.974Z,20.13
2018-11-20T02:50:25.375Z,18.23
2018-11-20T02:51:22.348Z,18.93
2018-11-20T02:52:15.170Z,19.40
2018-11-20T02:53:08.038Z,19.43
2018-11-20T02:54:10.014Z,19.37
2018-11-20T02:55:04.101Z,17.13
2018-11-20T02:55:53.379Z,19.07
2018-11-20T02:56:45.893Z,19.07
2018-11-20T02:57:51.714Z,19.07
2018-11-20T02:58:39.109Z,18.30
2018-11-20T02:59:32.065Z,18.80
2018-11-20T03:00:29.774Z,17.83
2018-11-20T03:01:22.475Z,18.43
2018-11-20T03:02:08.662Z,18.83
2018-11-20T03:03:18.102Z,19.30
2018-11-20T03:04:15.391Z,19.47
2018-11-20T03:05:02.415Z,18.33
2018-11-20T03:06:08.537Z,19.67
2018-11-20T03:06:53.118Z,18.17
2018-11-20T03:07:44.720Z,18.80
2018-11-20T03:08:35.020Z,18.43
2018-11-20T03:09:27.718Z,18.10
2018-11-20T03:10:21.920Z,18.87
2018-11-20T03:11:14.793Z,19.77
2018-11-20T03:12:08.083Z,18.60
2018-11-20T03:12:53.762Z,17.87
2018-11-20T03:13:46.338Z,17.80
2018-11-20T03:14:32.215Z,17.63
2018-11-20T03:15:27.171Z,18.60
2018-11-20T03:16:19.967Z,17.80
2018-11-20T03:17:23.102Z,18.00
2018-11-20T03:18:20.159Z,18.17
2018-11-20T03:19:29.531Z,18.50
2018-11-20T03:20:22.591Z,17.80
2018-11-20T03:21:15.254Z,17.07
2018-11-20T03:22:12.220Z,18.30
2018-11-20T03:23:02.965Z,18.07
2018-11-20T03:24:08.991Z,17.80
2018-11-20T03:25:06.190Z,17.40
2018-11-20T03:26:04.107Z,18.20
2018-11-20T03:26:56.615Z,17.97
2018-11-20T03:27:53.845Z,18.47
2018-11-20T03:28:50.830Z,17.93
2018-11-20T03:30:42.527Z,17.53
2018-11-20T03:31:34.868Z,17.90
2018-11-20T03:32:29.468Z,18.40
2018-11-20T03:33:17.558Z,17.83
2018-11-20T03:34:06.173Z,17.97
2018-11-20T03:34:52.503Z,18.20
2018-11-20T03:35:44.769Z,18.33
2018-11-20T03:36:35.781Z,18.77
2018-11-20T03:37:35.479Z,18.20
2018-11-20T03:38:30.710Z,17.93
2018-11-20T03:39:30.268Z,18.00
2018-11-20T03:40:43.167Z,17.90
2018-11-20T03:41:37.507Z,17.17
2018-11-20T03:42:28.312Z,18.87
2018-11-20T03:43:15.242Z,15.87
2018-11-20T03:44:08.591Z,17.73
2018-11-20T03:45:00.978Z,17.90
2018-11-20T03:45:50.264Z,18.60
2018-11-20T03:47:02.309Z,19.40
2018-11-20T03:48:06.073Z,17.37
2018-11-20T03:48:58.938Z,17.67
2018-11-20T03:49:51.600Z,17.30
2018-11-20T03:51:03.854Z,18.23
2018-11-20T03:51:54.567Z,18.50
2018-11-20T03:52:57.652Z,17.77
2018-11-20T03:53:46.886Z,17.53
2018-11-20T03:54:59.231Z,16.43
2018-11-20T03:55:48.832Z,17.17
2018-11-20T03:56:45.743Z,17.97
2018-11-20T03:57:42.933Z,17.77
2018-11-20T03:58:49.353Z,17.33
2018-11-20T03:59:42.764Z,17.57
2018-11-20T04:00:35.291Z,18.13
2018-11-20T04:01:23.881Z,17.97
2018-11-20T04:02:16.586Z,18.40
2018-11-20T04:03:13.523Z,17.70
2018-11-20T04:03:57.833Z,17.17
2018-11-20T04:04:58.384Z,18.77
2018-11-20T04:06:08.383Z,18.13
2018-11-20T04:07:05.459Z,17.73
2018-11-20T04:08:05.188Z,17.47
2018-11-20T04:08:57.873Z,17.77
2018-11-20T04:09:50.962Z,16.90
2018-11-20T04:10:48.048Z,17.13
2018-11-20T04:11:32.956Z,17.73
2018-11-20T04:12:30.094Z,17.33
2018-11-20T04:13:22.674Z,17.93
2018-11-20T04:14:15.288Z,17.57
2018-11-20T04:15:12.495Z,18.30
2018-11-20T04:16:05.415Z,18.57
2018-11-20T04:16:58.564Z,17.30
2018-11-20T04:17:52.005Z,18.63
2018-11-20T04:18:52.678Z,18.57
2018-11-20T04:19:49.692Z,17.70
2018-11-20T04:20:53.366Z,16.83
2018-11-20T04:21:45.837Z,17.23
2018-11-20T04:22:43.262Z,17.87
2018-11-20T04:23:29.809Z,17.40
2018-11-20T04:24:39.199Z,19.00
2018-11-20T04:25:32.001Z,17.13
2018-11-20T04:26:35.486Z,17.73
2018-11-20T04:27:27.916Z,16.53
2018-11-20T04:28:17.273Z,17.27
2018-11-20T04:29:20.531Z,16.93
2018-11-20T04:30:43.867Z,17.67
2018-11-20T04:32:18.801Z,17.60
2018-11-20T04:33:51.053Z,16.03
2018-11-20T04:34:53.935Z,15.93
2018-11-20T04:35:37.189Z,17.33
2018-11-20T04:36:29.999Z,17.03
2018-11-20T04:37:22.968Z,16.80
2018-11-20T04:38:08.288Z,18.03
2018-11-20T04:39:00.150Z,17.67
2018-11-20T04:39:57.193Z,18.00
2018-11-20T04:40:48.085Z,17.63
2018-11-20T04:41:30.855Z,17.93
2018-11-20T04:42:34.066Z,17.90
2018-11-20T04:43:29.178Z,17.10
2018-11-20T04:44:25.883Z,16.83
2018-11-20T04:45:25.927Z,18.87
2018-11-20T04:46:11.792Z,17.43
2018-11-20T04:46:56.517Z,18.27
2018-11-20T04:47:49.700Z,18.27
2018-11-20T04:48:44.251Z,18.07
2018-11-20T04:49:28.817Z,18.90
2018-11-20T04:50:13.097Z,18.33
2018-11-20T04:51:10.088Z,17.50
2018-11-20T04:52:01.170Z,18.67
2018-11-20T04:52:46.726Z,16.30
2018-11-20T04:53:41.213Z,18.30
2018-11-20T04:54:26.385Z,18.07
2018-11-20T04:55:24.935Z,18.07
2018-11-20T04:56:22.544Z,18.60
2018-11-20T04:57:17.632Z,18.40
2018-11-20T04:58:09.958Z,17.70
2018-11-20T04:59:02.982Z,17.80
2018-11-20T05:00:06.515Z,17.97
2018-11-20T05:01:10.447Z,17.43
2018-11-20T05:02:12.101Z,17.27
2018-11-20T05:03:00.221Z,17.97
2018-11-20T05:03:57.326Z,19.10
2018-11-20T05:04:48.542Z,17.37
2018-11-20T05:05:41.030Z,19.53
2018-11-20T05:06:38.070Z,18.53
2018-11-20T05:07:37.720Z,17.90
2018-11-20T05:08:26.815Z,18.70
2018-11-20T05:09:20.009Z,17.97
2018-11-20T05:10:26.169Z,18.17
2018-11-20T05:11:19.004Z,19.00
2018-11-20T05:12:09.991Z,17.87
2018-11-20T05:13:06.255Z,18.83
2018-11-20T05:13:59.441Z,19.33
2018-11-20T05:14:52.381Z,18.57
2018-11-20T05:15:45.750Z,18.70
2018-11-20T05:16:40.582Z,19.30
2018-11-20T05:17:33.501Z,18.33
2018-11-20T05:18:33.509Z,18.13
2018-11-20T05:19:45.703Z,18.87
2018-11-20T05:20:39.937Z,18.23
2018-11-20T05:21:42.355Z,17.87
2018-11-20T05:22:42.926Z,18.67
2018-11-20T05:23:37.321Z,17.80
2018-11-20T05:24:22.421Z,18.17
2018-11-20T05:25:26.251Z,18.47
2018-11-20T05:26:17.887Z,18.60
2018-11-20T05:27:10.825Z,18.37
2018-11-20T05:28:03.619Z,18.90
2018-11-20T05:29:03.396Z,18.20
2018-11-20T05:29:55.892Z,18.37
2018-11-20T05:30:52.971Z,19.90
2018-11-20T05:31:52.965Z,18.47
2018-11-20T05:32:53.760Z,17.87
2018-11-20T05:34:02.820Z,19.40
2018-11-20T05:34:47.721Z,18.67
2018-11-20T05:35:54.223Z,19.17
2018-11-20T05:36:47.172Z,19.10
2018-11-20T05:37:47.936Z,19.60
2018-11-20T05:38:41.162Z,20.30
2018-11-20T05:39:50.204Z,19.83
2018-11-20T05:40:55.948Z,18.83
2018-11-20T05:41:53.318Z,19.57
2018-11-20T05:43:03.291Z,19.00
2018-11-20T05:43:51.163Z,19.20
2018-11-20T05:45:03.461Z,18.80
2018-11-20T05:46:05.636Z,19.33
2018-11-20T05:46:58.401Z,19.77
2018-11-20T05:47:55.288Z,19.70
2018-11-20T05:48:55.805Z,19.80
2018-11-20T05:49:48.992Z,19.87
2018-11-20T05:50:41.466Z,19.77
2018-11-20T05:51:34.066Z,19.80
2018-11-20T05:52:31.460Z,19.27
2018-11-20T05:53:40.801Z,19.53
2018-11-20T05:54:33.933Z,20.13
2018-11-20T05:55:28.393Z,19.40
2018-11-20T05:56:28.305Z,18.90
2018-11-20T05:57:31.997Z,19.17
2018-11-20T05:58:18.152Z,19.97
2018-11-20T05:59:15.174Z,20.07
2018-11-20T06:00:05.305Z,20.63
2018-11-20T06:01:11.589Z,19.90
2018-11-20T06:02:00.142Z,19.17
2018-11-20T06:02:53.350Z,19.40
2018-11-20T06:03:46.380Z,19.87
2018-11-20T06:04:33.630Z,20.67
2018-11-20T06:05:20.780Z,18.37
2018-11-20T06:06:29.823Z,19.33
2018-11-20T06:07:15.561Z,18.50
2018-11-20T06:08:06.905Z,20.77
2018-11-20T06:09:16.120Z,20.00
2018-11-20T06:10:09.161Z,19.87
2018-11-20T06:11:03.387Z,19.27
2018-11-20T06:11:56.126Z,21.40
2018-11-20T06:12:47.346Z,20.00
2018-11-20T06:13:40.276Z,21.20
2018-11-20T06:14:37.019Z,20.50
2018-11-20T06:15:40.402Z,19.70
2018-11-20T06:16:35.105Z,20.80
2018-11-20T06:17:35.280Z,20.03
2018-11-20T06:18:38.554Z,20.00
2018-11-20T06:19:33.515Z,20.33
2018-11-20T06:20:26.197Z,19.73
2018-11-20T06:21:22.934Z,20.20
2018-11-20T06:22:15.419Z,20.07
2018-11-20T06:23:09.693Z,21.63
2018-11-20T06:24:02.557Z,19.00
2018-11-20T06:24:56.751Z,20.47
2018-11-20T06:25:49.454Z,20.23
2018-11-20T06:26:43.515Z,20.53
2018-11-20T06:27:49.403Z,20.43
2018-11-20T06:28:42.082Z,20.10
2018-11-20T06:29:34.439Z,20.80
2018-11-20T06:30:25.426Z,20.93
2018-11-20T06:31:31.220Z,19.97
2018-11-20T06:32:24.079Z,19.30
2018-11-20T06:33:21.783Z,20.07
2018-11-20T06:34:22.623Z,20.37
2018-11-20T06:35:16.784Z,19.30
2018-11-20T06:36:28.860Z,19.63
2018-11-20T06:37:23.180Z,20.73
2018-11-20T06:38:16.193Z,20.10
2018-11-20T06:39:10.325Z,20.03
2018-11-20T06:40:04.417Z,20.90
2018-11-20T06:40:56.977Z,20.67
2018-11-20T06:41:49.845Z,20.23
2018-11-20T06:42:44.055Z,20.17
2018-11-20T06:43:50.276Z,19.67
2018-11-20T06:44:42.997Z,19.00
2018-11-20T06:45:37.284Z,20.27
2018-11-20T06:46:30.026Z,19.23
2018-11-20T06:47:36.737Z,20.50
2018-11-20T06:48:42.667Z,19.90
2018-11-20T06:49:55.031Z,19.10
2018-11-20T06:50:54.745Z,21.13
2018-11-20T06:51:40.739Z,19.40
2018-11-20T06:52:33.440Z,20.37
2018-11-20T06:53:22.848Z,20.27
2018-11-20T06:54:15.517Z,20.23
2018-11-20T06:55:28.292Z,19.57
2018-11-20T06:56:20.929Z,18.53
2018-11-20T06:57:14.997Z,19.13
2018-11-20T06:58:26.907Z,18.97
2018-11-20T06:59:19.422Z,20.00
2018-11-20T07:00:11.910Z,19.80
2018-11-20T07:01:04.321Z,21.20
2018-11-20T07:02:01.157Z,19.50
2018-11-20T07:02:58.092Z,20.37
2018-11-20T07:03:57.644Z,19.77
2018-11-20T07:05:07.036Z,18.93
2018-11-20T07:06:10.619Z,20.00
2018-11-20T07:07:07.450Z,19.67
2018-11-20T07:07:59.988Z,20.57
2018-11-20T07:08:52.616Z,19.53
2018-11-20T07:09:41.442Z,20.17
2018-11-20T07:10:34.435Z,19.27
2018-11-20T07:11:26.968Z,20.27
2018-11-20T07:12:20.183Z,19.60
2018-11-20T07:13:17.299Z,18.90
2018-11-20T07:14:37.651Z,19.23
2018-11-20T07:15:30.670Z,19.67
2018-11-20T07:16:46.248Z,19.77
2018-11-20T07:17:42.670Z,19.63
2018-11-20T07:18:48.937Z,19.47
2018-11-20T07:19:45.108Z,18.77
2018-11-20T07:20:37.883Z,20.20
2018-11-20T07:21:35.022Z,19.80
2018-11-20T07:22:35.072Z,19.73
2018-11-20T07:23:24.036Z,19.30
2018-11-20T07:24:16.308Z,20.13
2018-11-20T07:25:13.151Z,20.47
2018-11-20T07:26:06.032Z,19.13
2018-11-20T07:27:03.059Z,20.33
2018-11-20T07:27:55.794Z,19.23
2018-11-20T07:28:41.483Z,20.20
2018-11-20T07:29:50.947Z,19.07
2018-11-20T07:30:34.060Z,19.33
2018-11-20T07:31:26.658Z,19.73
2018-11-20T07:32:27.524Z,19.23
2018-11-20T07:33:24.700Z,18.97
2018-11-20T07:34:17.308Z,20.80
2018-11-20T07:35:17.094Z,20.53
2018-11-20T07:36:09.454Z,19.57
2018-11-20T07:36:57.280Z,20.33
2018-11-20T07:38:06.498Z,20.37
2018-11-20T07:38:58.945Z,19.00
2018-11-20T07:39:55.755Z,19.70
2018-11-20T07:40:45.410Z,19.17
2018-11-20T07:41:42.625Z,19.47
2018-11-20T07:42:30.147Z,19.10
2018-11-20T07:43:36.772Z,21.10
2018-11-20T07:44:24.952Z,20.77
2018-11-20T07:45:17.274Z,19.60
2018-11-20T07:46:09.847Z,19.37
2018-11-20T07:47:02.932Z,20.37
2018-11-20T07:47:52.572Z,20.67
2018-11-20T07:48:58.580Z,19.20
2018-11-20T07:49:46.901Z,21.07
2018-11-20T07:50:39.052Z,20.70
2018-11-20T07:51:26.872Z,19.87
2018-11-20T07:52:23.939Z,20.53
2018-11-20T07:53:29.764Z,19.60
2018-11-20T07:54:33.015Z,19.70
2018-11-20T07:55:37.082Z,18.67
2018-11-20T07:56:42.943Z,21.27
2018-11-20T07:57:35.600Z,20.03
2018-11-20T07:58:26.050Z,19.67
2018-11-20T07:59:32.228Z,20.93
2018-11-20T08:00:37.933Z,20.40
2018-11-20T08:01:30.324Z,20.03
2018-11-20T08:02:23.242Z,20.20
2018-11-20T08:03:17.161Z,19.90
2018-11-20T08:04:09.747Z,20.77
2018-11-20T08:05:04.395Z,19.27
2018-11-20T08:05:47.924Z,19.47
2018-11-20T08:06:54.109Z,21.40
2018-11-20T08:07:50.561Z,20.13
2018-11-20T08:08:43.339Z,20.43
2018-11-20T08:09:46.192Z,18.77
2018-11-20T08:10:45.906Z,19.17
2018-11-20T08:11:39.258Z,19.63
2018-11-20T08:12:32.492Z,20.13
2018-11-20T08:13:41.618Z,20.03
2018-11-20T08:14:53.603Z,18.83
2018-11-20T08:15:46.594Z,19.63
2018-11-20T08:16:40.799Z,21.13
2018-11-20T08:17:41.335Z,20.00
2018-11-20T08:18:38.109Z,19.87
2018-11-20T08:19:35.122Z,20.60
2018-11-20T08:20:41.651Z,20.40
2018-11-20T08:21:48.078Z,18.97
2018-11-20T08:22:40.300Z,19.93
2018-11-20T08:23:40.197Z,19.50
2018-11-20T08:24:46.861Z,20.47
2018-11-20T08:25:49.803Z,19.67
2018-11-20T08:26:36.892Z,19.73
2018-11-20T08:27:22.760Z,19.70
2018-11-20T08:28:25.591Z,21.70
2018-11-20T08:29:18.287Z,19.10
2018-11-20T08:30:30.301Z,20.10
2018-11-20T08:31:17.556Z,20.43
2018-11-20T08:32:17.697Z,19.43
2018-11-20T08:33:03.565Z,20.53
2018-11-20T08:33:56.928Z,20.33
2018-11-20T08:35:00.110Z,20.63
2018-11-20T08:35:53.303Z,20.93
2018-11-20T08:36:47.333Z,20.30
2018-11-20T08:37:48.012Z,19.50
2018-11-20T08:38:57.272Z,20.13
2018-11-20T08:39:52.395Z,20.70
2018-11-20T08:40:44.902Z,20.50
2018-11-20T08:41:39.111Z,19.67
2018-11-20T08:42:36.095Z,19.63
2018-11-20T08:43:39.133Z,20.67
2018-11-20T08:44:31.808Z,20.10
2018-11-20T08:45:24.314Z,19.63
2018-11-20T08:46:21.768Z,19.50
2018-11-20T08:47:13.396Z,19.17
2018-11-20T08:48:04.738Z,20.23
2018-11-20T08:49:11.124Z,20.30
2018-11-20T08:50:03.718Z,19.63
2018-11-20T08:51:02.289Z,20.90
2018-11-20T08:51:57.883Z,19.40
2018-11-20T08:52:50.901Z,20.13
2018-11-20T08:53:48.751Z,21.57
2018-11-20T08:55:00.537Z,19.40
2018-11-20T08:55:57.121Z,19.93
2018-11-20T08:56:49.853Z,19.83
2018-11-20T08:57:42.606Z,19.00
2018-11-20T08:58:46.350Z,20.23
2018-11-20T08:59:29.363Z,19.67
2018-11-20T09:00:36.161Z,20.33
2018-11-20T09:01:26.280Z,19.17
2018-11-20T09:02:23.568Z,20.10
2018-11-20T09:03:16.485Z,19.30
2018-11-20T09:04:09.199Z,20.73
2018-11-20T09:05:09.052Z,19.27
2018-11-20T09:06:01.508Z,19.80
2018-11-20T09:06:55.516Z,19.83
2018-11-20T09:07:50.123Z,21.20
2018-11-20T09:08:42.657Z,19.03
2018-11-20T09:09:36.646Z,19.17
2018-11-20T09:10:39.583Z,18.97
2018-11-20T09:11:33.833Z,20.47
2018-11-20T09:12:39.806Z,20.37
2018-11-20T09:13:46.035Z,20.47
2018-11-20T09:14:58.251Z,18.53
2018-11-20T09:15:52.905Z,18.30
2018-11-20T09:16:45.457Z,19.17
2018-11-20T09:17:54.895Z,20.00
2018-11-20T09:18:57.351Z,18.13
2018-11-20T09:19:49.753Z,20.60
2018-11-20T09:20:43.935Z,19.43
2018-11-20T09:21:55.982Z,20.37
2018-11-20T09:22:52.994Z,19.00
2018-11-20T09:23:50.023Z,19.03
2018-11-20T09:24:50.156Z,18.90
2018-11-20T09:25:42.823Z,18.87
2018-11-20T09:26:28.046Z,18.17
2018-11-20T09:27:28.387Z,20.13
2018-11-20T09:28:28.236Z,19.67
2018-11-20T09:29:25.656Z,19.90
2018-11-20T09:30:18.473Z,19.40
2018-11-20T09:31:27.650Z,19.80
2018-11-20T09:32:20.261Z,19.93
2018-11-20T09:33:14.752Z,18.90
2018-11-20T09:34:07.656Z,20.10
2018-11-20T09:34:56.886Z,19.43
2018-11-20T09:35:49.174Z,19.20
2018-11-20T09:36:41.898Z,20.20
2018-11-20T09:37:48.745Z,19.17
2018-11-20T09:38:41.122Z,20.17
2018-11-20T09:39:25.476Z,20.10
2018-11-20T09:40:53.552Z,19.13
2018-11-20T09:41:59.612Z,19.03
2018-11-20T09:42:55.293Z,18.60
2018-11-20T09:44:16.260Z,18.87
2018-11-20T09:45:55.013Z,18.60
2018-11-20T09:46:44.611Z,19.83
2018-11-20T09:47:37.364Z,18.63
2018-11-20T09:48:30.141Z,18.90
2018-11-20T09:49:39.732Z,19.33
2018-11-20T09:50:38.398Z,18.87
2018-11-20T09:51:31.350Z,19.17
2018-11-20T09:52:28.899Z,19.40
2018-11-20T09:53:21.419Z,18.90
2018-11-20T09:54:13.854Z,19.63
2018-11-20T09:55:05.937Z,19.77
2018-11-20T09:56:00.205Z,18.53
2018-11-20T09:56:53.075Z,19.07
2018-11-20T09:57:44.354Z,17.50
2018-11-20T09:58:41.463Z,18.27
2018-11-20T09:59:43.123Z,18.40
2018-11-20T10:00:51.991Z,18.30
2018-11-20T10:01:44.541Z,19.07
2018-11-20T10:02:37.026Z,19.17
2018-11-20T10:03:19.751Z,20.17
2018-11-20T10:04:12.852Z,20.30
2018-11-20T10:05:05.639Z,19.00
2018-11-20T10:05:48.228Z,18.87
2018-11-20T10:06:40.507Z,19.60
2018-11-20T10:07:33.099Z,18.97
2018-11-20T10:08:30.489Z,20.00
2018-11-20T10:09:27.224Z,19.63
2018-11-20T10:10:20.135Z,19.93
2018-11-20T10:11:20.192Z,19.37
2018-11-20T10:12:17.465Z,18.83
2018-11-20T10:13:02.159Z,18.73
2018-11-20T10:13:56.498Z,19.57
2018-11-20T10:14:50.936Z,19.17
2018-11-20T10:15:42.827Z,19.50
2018-11-20T10:16:48.590Z,19.37
2018-11-20T10:17:43.841Z,18.90
2018-11-20T10:18:36.349Z,19.73
2018-11-20T10:19:36.749Z,18.57
2018-11-20T10:20:29.472Z,19.93
2018-11-20T10:21:22.479Z,18.50
2018-11-20T10:22:31.447Z,19.47
2018-11-20T10:23:24.458Z,18.97
2018-11-20T10:24:17.084Z,18.90
2018-11-20T10:25:17.163Z,19.90
2018-11-20T10:26:05.047Z,20.03
2018-11-20T10:32:04.713Z,19.27
2018-11-20T10:49:00.238Z,18.37
2018-11-20T10:52:36.671Z,18.67
2018-11-20T11:01:06.804Z,19.47
2018-11-20T11:16:03.360Z,18.30
2018-11-20T11:16:56.837Z,17.67
2018-11-20T11:21:47.150Z,18.60
2018-11-20T11:22:36.198Z,18.70
2018-11-20T11:23:17.869Z,18.50
2018-11-20T11:30:02.249Z,19.60
2018-11-20T11:35:51.637Z,18.23
2018-11-20T11:41:17.208Z,18.60
2018-11-20T11:46:28.398Z,17.90
2018-11-20T11:47:33.570Z,18.77
2018-11-20T11:53:11.732Z,18.40
2018-11-20T12:09:13.247Z,18.17
2018-11-20T12:10:07.407Z,18.83
2018-11-20T12:11:00.676Z,19.53
2018-11-20T12:13:25.018Z,18.80
2018-11-20T12:14:18.252Z,19.17
2018-11-20T12:17:25.546Z,18.80
2018-11-20T12:18:19.189Z,18.60
2018-11-20T12:20:29.455Z,17.77
2018-11-20T12:21:22.606Z,17.97
2018-11-20T12:24:47.351Z,18.30
2018-11-20T12:29:41.075Z,18.70
2018-11-20T12:31:45.511Z,19.27
2018-11-20T12:32:38.891Z,18.57
2018-11-20T12:37:04.440Z,17.17
2018-11-20T12:37:59.325Z,17.47
2018-11-20T12:38:43.423Z,17.80
2018-11-20T12:39:35.742Z,17.40
2018-11-20T12:40:29.015Z,17.80
2018-11-20T12:44:56.705Z,15.27
2018-11-20T12:50:03.123Z,14.40
2018-11-20T12:56:15.670Z,11.70
2018-11-20T13:01:30.366Z,11.40
2018-11-20T13:03:51.340Z,11.20
2018-11-20T13:09:45.257Z,10.77
2018-11-20T13:11:55.906Z,11.47
2018-11-20T13:13:59.735Z,10.87
2018-11-20T13:16:05.941Z,11.07
2018-11-20T13:18:21.503Z,11.47
2018-11-20T13:20:26.035Z,11.37
2018-11-20T13:21:13.773Z,12.73
2018-11-20T13:23:19.932Z,10.90
2018-11-20T13:24:11.966Z,12.27
2018-11-20T13:25:06.780Z,12.07
2018-11-20T13:26:05.955Z,12.07
2018-11-20T13:27:03.580Z,11.40
2018-11-20T13:28:08.800Z,12.07
2018-11-20T13:29:00.692Z,11.50
2018-11-20T13:29:52.836Z,11.63
2018-11-20T13:30:54.774Z,12.00
2018-11-20T13:31:46.782Z,12.47
2018-11-20T13:32:54.803Z,11.93
2018-11-20T13:33:50.879Z,11.67
2018-11-20T13:34:43.017Z,12.33
2018-11-20T13:35:34.765Z,12.00
2018-11-20T13:36:29.804Z,12.30
2018-11-20T13:37:21.616Z,12.43
2018-11-20T13:38:24.087Z,11.47
2018-11-20T13:39:15.614Z,11.63
2018-11-20T13:39:58.129Z,12.43
2018-11-20T13:41:17.959Z,12.93
2018-11-20T13:42:21.865Z,12.53
2018-11-20T13:43:08.980Z,12.27
2018-11-20T13:43:59.051Z,12.50
2018-11-20T13:44:52.530Z,13.33
2018-11-20T13:45:45.997Z,12.40
2018-11-20T13:46:40.886Z,12.77
2018-11-20T13:47:40.018Z,13.50
2018-11-20T13:48:28.522Z,13.17
2018-11-20T13:49:21.784Z,13.30
2018-11-20T13:50:27.282Z,13.10
2018-11-20T13:51:24.837Z,12.87
2018-11-20T13:52:16.807Z,12.90
2018-11-20T13:53:11.936Z,13.03
2018-11-20T13:54:01.570Z,13.50
2018-11-20T13:54:53.365Z,13.03
2018-11-20T13:55:55.931Z,12.90
2018-11-20T13:57:04.106Z,13.03
2018-11-20T13:57:57.974Z,13.10
2018-11-20T13:58:49.868Z,12.80
2018-11-20T13:59:46.488Z,12.50
2018-11-20T14:00:38.013Z,13.93
2018-11-20T14:01:30.266Z,13.03
2018-11-20T14:02:22.087Z,12.43
2018-11-20T14:03:14.087Z,12.67
2018-11-20T14:04:02.653Z,14.23
2018-11-20T14:04:55.016Z,13.43
2018-11-20T14:05:41.100Z,13.73
2018-11-20T14:06:28.385Z,13.60
2018-11-20T14:07:33.836Z,14.13
2018-11-20T14:08:30.247Z,13.40
2018-11-20T14:09:23.577Z,12.47
2018-11-20T14:10:16.825Z,12.97
2018-11-20T14:10:57.095Z,13.30
2018-11-20T14:11:56.499Z,14.43
2018-11-20T14:12:49.920Z,12.77
2018-11-20T14:13:39.664Z,13.80
2018-11-20T14:14:34.195Z,13.13
2018-11-20T14:15:30.340Z,13.27
2018-11-20T14:16:41.784Z,13.27
2018-11-20T14:18:00.644Z,13.63
2018-11-20T14:18:54.103Z,13.00
2018-11-20T14:19:50.102Z,12.93
2018-11-20T14:20:44.468Z,13.20
2018-11-20T14:21:36.199Z,14.07
2018-11-20T14:22:28.004Z,13.47
2018-11-20T14:23:19.674Z,13.63
2018-11-20T14:24:11.860Z,13.40
2018-11-20T14:25:04.671Z,12.77
2018-11-20T14:26:04.066Z,13.60
2018-11-20T14:26:56.163Z,14.03
2018-11-20T14:27:41.813Z,13.73
2018-11-20T14:28:33.684Z,14.30
2018-11-20T14:29:35.365Z,13.93
2018-11-20T14:30:28.198Z,12.47
2018-11-20T14:31:20.105Z,14.33
2018-11-20T14:32:12.331Z,13.83
2018-11-20T14:33:11.464Z,13.77
2018-11-20T14:34:24.255Z,13.83
2018-11-20T14:35:14.967Z,13.40
2018-11-20T14:36:04.997Z,14.00
2018-11-20T14:37:07.056Z,13.17
2018-11-20T14:38:03.262Z,14.23
2018-11-20T14:38:56.599Z,14.13
2018-11-20T14:39:57.557Z,14.10
2018-11-20T14:40:49.722Z,14.83
2018-11-20T14:41:39.897Z,14.20
2018-11-20T14:42:33.646Z,14.73
2018-11-20T14:43:19.650Z,15.30
2018-11-20T14:44:12.702Z,13.97
2018-11-20T14:45:11.776Z,14.73
2018-11-20T14:46:05.029Z,14.67
2018-11-20T14:46:57.047Z,14.30
2018-11-20T14:48:05.211Z,14.27
2018-11-20T14:49:03.779Z,14.90
2018-11-20T14:50:05.126Z,14.47
2018-11-20T14:50:57.216Z,13.43
2018-11-20T14:51:50.912Z,14.00
2018-11-20T14:52:42.948Z,15.20
2018-11-20T14:53:38.952Z,14.07
2018-11-20T14:54:30.692Z,14.67
2018-11-20T14:55:33.659Z,15.37
2018-11-20T14:56:36.290Z,15.03
2018-11-20T14:57:21.270Z,14.53
2018-11-20T14:58:09.926Z,14.43
2018-11-20T14:59:15.451Z,13.97
2018-11-20T15:00:23.566Z,14.77
2018-11-20T15:01:16.948Z,15.30
2018-11-20T15:02:25.164Z,15.10
2018-11-20T15:03:18.715Z,15.07
2018-11-20T15:04:04.933Z,16.60
2018-11-20T15:05:01.199Z,17.10
2018-11-20T15:05:46.922Z,16.53
2018-11-20T15:06:38.950Z,15.67
2018-11-20T15:07:32.468Z,15.63
2018-11-20T15:08:25.717Z,15.50
2018-11-20T15:09:19.556Z,15.90
2018-11-20T15:10:22.062Z,15.13
2018-11-20T15:11:14.166Z,15.23
2018-11-20T15:12:06.483Z,16.73
2018-11-20T15:13:02.831Z,16.07
2018-11-20T15:13:57.275Z,15.27
2018-11-20T15:15:05.744Z,15.93
2018-11-20T15:15:57.648Z,16.77
2018-11-20T15:16:49.606Z,15.67
2018-11-20T15:17:47.585Z,15.93
2018-11-20T15:18:31.385Z,16.00
2018-11-20T15:19:24.893Z,16.73
2018-11-20T15:20:16.905Z,16.17
2018-11-20T15:21:09.808Z,16.43
2018-11-20T15:22:02.163Z,16.73
2018-11-20T15:22:55.687Z,17.63
2018-11-20T15:23:39.962Z,16.57
2018-11-20T15:24:39.083Z,15.87
2018-11-20T15:25:23.431Z,16.43
2018-11-20T15:26:17.167Z,16.80
2018-11-20T15:27:13.632Z,17.30
2018-11-20T15:28:15.811Z,16.33
2018-11-20T15:29:09.265Z,16.07
2018-11-20T15:30:03.432Z,17.47
2018-11-20T15:30:43.429Z,16.23
2018-11-20T15:31:54.841Z,16.30
2018-11-20T15:32:46.723Z,16.17
2018-11-20T15:33:33.794Z,16.20
2018-11-20T15:34:25.884Z,16.43
2018-11-20T15:35:31.231Z,16.13
2018-11-20T15:36:24.691Z,16.83
2018-11-20T15:37:16.473Z,16.40
2018-11-20T15:38:12.545Z,16.30
2018-11-20T15:39:08.155Z,17.50
2018-11-20T15:40:09.763Z,17.57
2018-11-20T15:41:12.006Z,17.17
2018-11-20T15:42:07.992Z,16.60
2018-11-20T15:43:10.242Z,15.40
2018-11-20T15:44:03.693Z,18.27
2018-11-20T15:44:55.591Z,16.40
2018-11-20T15:45:58.164Z,16.53
2018-11-20T15:46:51.682Z,15.87
2018-11-20T15:47:59.904Z,16.03
2018-11-20T15:49:08.585Z,16.53
2018-11-20T15:50:00.495Z,17.33
2018-11-20T15:50:52.314Z,17.13
2018-11-20T15:51:45.503Z,17.50
2018-11-20T15:52:34.989Z,17.97
2018-11-20T15:53:26.695Z,16.47
2018-11-20T15:54:19.298Z,18.07
2018-11-20T15:55:11.305Z,17.63
2018-11-20T15:56:10.032Z,17.13
2018-11-20T15:57:12.031Z,17.30
2018-11-20T15:58:20.740Z,17.10
2018-11-20T15:59:12.347Z,17.20
2018-11-20T16:00:05.786Z,17.07
2018-11-20T16:00:59.030Z,17.63
2018-11-20T16:02:07.566Z,17.97
2018-11-20T16:03:06.792Z,17.93
2018-11-20T16:03:58.312Z,18.10
2018-11-20T16:04:50.973Z,17.23
2018-11-20T16:05:43.051Z,18.17
2018-11-20T16:06:45.372Z,18.17
2018-11-20T16:07:37.164Z,17.43
2018-11-20T16:08:20.293Z,18.93
2018-11-20T16:09:23.295Z,17.93
2018-11-20T16:10:16.984Z,17.70
2018-11-20T16:11:19.408Z,17.90
2018-11-20T16:12:11.943Z,19.27
2018-11-20T16:13:14.281Z,18.23
2018-11-20T16:14:07.126Z,17.77
2018-11-20T16:14:58.731Z,18.10